Chesterfield Township, New Jersey
Current Conditions -  °F | °C
As of 9:19 AM on Tuesday 21 Oct 2014 (Local Time) from KWRI Reporting Station
Broken Clouds Broken Clouds  
Wind Chill: 55°   Ceiling: 12000
Heat Index: 55°   Visibility: 10mi
Dew Point: 50°   Wind: 0mph
Humidity: 82%   Direction: NA
Pressure: 29.87"   Gusts: NA
Location:  40.144°N, 74.6589°W
Report Text: KWRI 211319Z 00000KT 10SM BKN120 13/10 A2987
Loading
Personal Weather Stations






























Interactive Weather Map
Tropical Storm Tracking
New forecast layout! Learn more

10-Day Weather Forecast

Advertisements
Track Severe Weather on mobile